Time;durP1;ratioP1;P1;durP2;ratioP2;P2;SDS_P1;SDS_P2;PMS_P1;PMS_P2;Temp;Humidity;BMP_temperature;BMP_pressure;BME280_temperature;BME280_humidity;BME280_pressure;Samples;Min_cycle;Max_cycle;Signal;HPM_P1;HPM_P2
2021/06/05 00:00:50;;;;;;;3.88;0.90;;;;;;;;;;5041438;28;20043;-63
2021/06/05 00:03:16;;;;;;;3.17;0.82;;;;;;;;;;5038621;28;20044;-62
2021/06/05 00:05:45;;;;;;;4.22;0.95;;;;;;;;;;5039479;28;20043;-62
2021/06/05 00:08:11;;;;;;;6.30;1.17;;;;;;;;;;5040564;28;20090;-61
2021/06/05 00:10:39;;;;;;;3.13;1.00;;;;;;;;;;5039224;28;20051;-61
2021/06/05 00:13:12;;;;;;;6.05;0.88;;;;;;;;;;5039306;28;20099;-61
2021/06/05 00:15:40;;;;;;;5.45;1.00;;;;;;;;;;5037323;28;20045;-63
2021/06/05 00:18:06;;;;;;;5.38;0.90;;;;;;;;;;5042118;28;20060;-62
2021/06/05 00:20:33;;;;;;;4.60;1.20;;;;;;;;;;5042109;28;20099;-62
2021/06/05 00:22:59;;;;;;;5.95;1.33;;;;;;;;;;5044132;28;20522;-62
2021/06/05 00:25:26;;;;;;;6.55;1.00;;;;;;;;;;5042598;28;20048;-62
2021/06/05 00:27:52;;;;;;;5.93;0.95;;;;;;;;;;5045189;28;20036;-62
2021/06/05 00:30:18;;;;;;;5.72;0.98;;;;;;;;;;5045255;28;20114;-62
2021/06/05 00:32:44;;;;;;;4.60;1.10;;;;;;;;;;5044777;28;20051;-62
2021/06/05 00:35:10;;;;;;;9.77;1.05;;;;;;;;;;5044688;28;20041;-61
2021/06/05 00:37:36;;;;;;;4.25;0.70;;;;;;;;;;5045139;28;20053;-62
2021/06/05 00:40:09;;;;;;;5.93;1.25;;;;;;;;;;5048240;28;20062;-63
2021/06/05 00:42:37;;;;;;;5.18;0.90;;;;;;;;;;5041137;28;20036;-62
2021/06/05 00:45:04;;;;;;;5.53;1.05;;;;;;;;;;5044439;28;20455;-63
2021/06/05 00:47:30;;;;;;;6.75;1.13;;;;;;;;;;5042651;28;20144;-62
2021/06/05 00:49:56;;;;;;;8.63;1.00;;;;;;;;;;5044520;28;20563;-62
2021/06/05 00:52:24;;;;;;;8.77;1.00;;;;;;;;;;5044363;28;20970;-61
2021/06/05 00:54:50;;;;;;;6.85;1.33;;;;;;;;;;5044301;28;20101;-63
2021/06/05 00:57:16;;;;;;;6.88;0.93;;;;;;;;;;5044264;28;20045;-62
2021/06/05 00:59:44;;;;;;;7.30;1.00;;;;;;;;;;5051712;28;20036;-63
2021/06/05 01:02:10;;;;;;;6.43;0.82;;;;;;;;;;5044428;28;20060;-63
2021/06/05 01:04:41;;;;;;;5.55;0.70;;;;;;;;;;5043549;28;20389;-63
2021/06/05 01:07:20;;;;;;;7.72;0.90;;;;;;;;;;5041795;28;20049;-61
2021/06/05 01:09:58;;;;;;;3.53;0.77;;;;;;;;;;5043106;28;20033;-62
2021/06/05 01:12:40;;;;;;;8.70;1.00;;;;;;;;;;5043397;28;20037;-62
2021/06/05 01:15:05;;;;;;;;;;;;;;;;;;5042511;28;20118;-61
2021/06/05 01:17:33;;;;;;;9.43;1.05;;;;;;;;;;5043058;28;20369;-62
2021/06/05 01:20:03;;;;;;;5.78;0.90;;;;;;;;;;5043860;28;20041;-60
2021/06/05 01:22:44;;;;;;;9.45;1.23;;;;;;;;;;5044282;28;20043;-61
2021/06/05 01:25:10;;;;;;;14.18;1.30;;;;;;;;;;5043435;28;20045;-61
2021/06/05 01:27:38;;;;;;;8.25;1.27;;;;;;;;;;5044274;28;20468;-62
2021/06/05 01:30:18;;;;;;;10.35;1.65;;;;;;;;;;5044979;28;20068;-62
2021/06/05 01:32:46;;;;;;;10.80;1.33;;;;;;;;;;5044028;28;20124;-62
2021/06/05 01:35:14;;;;;;;15.13;1.85;;;;;;;;;;5043219;28;20117;-62
2021/06/05 01:37:41;;;;;;;21.35;1.98;;;;;;;;;;5044053;28;20056;-62
2021/06/05 01:40:09;;;;;;;19.60;1.73;;;;;;;;;;5025468;28;20060;-62
2021/06/05 01:42:36;;;;;;;10.75;1.23;;;;;;;;;;5035903;28;20029;-60
2021/06/05 01:45:05;;;;;;;8.18;1.08;;;;;;;;;;5055433;28;20029;-61
2021/06/05 01:47:30;;;;;;;8.52;1.10;;;;;;;;;;5031738;28;20037;-61
2021/06/05 01:49:56;;;;;;;8.75;1.02;;;;;;;;;;5041965;28;20033;-62
2021/06/05 01:52:25;;;;;;;8.32;0.93;;;;;;;;;;5042885;28;20121;-62
2021/06/05 01:55:10;;;;;;;8.77;1.48;;;;;;;;;;5035583;28;20087;-63
2021/06/05 01:57:39;;;;;;;7.47;0.90;;;;;;;;;;5041561;28;20056;-61
2021/06/05 02:00:15;;;;;;;6.88;0.95;;;;;;;;;;5043081;28;20132;-62
2021/06/05 02:02:41;;;;;;;6.80;0.98;;;;;;;;;;5033648;28;20068;-61
2021/06/05 02:05:07;;;;;;;7.80;1.10;;;;;;;;;;5041634;28;20121;-62
2021/06/05 02:07:33;;;;;;;11.60;0.95;;;;;;;;;;5041244;28;20428;-61
2021/06/05 02:09:59;;;;;;;7.93;0.98;;;;;;;;;;5042630;28;20091;-62
2021/06/05 02:12:30;;;;;;;12.00;2.03;;;;;;;;;;5042512;28;20097;-61
2021/06/05 02:15:11;;;;;;;5.32;1.10;;;;;;;;;;5041484;28;20116;-61
2021/06/05 02:17:39;;;;;;;13.07;1.33;;;;;;;;;;5042022;28;20075;-62
2021/06/05 02:20:09;;;;;;;7.55;0.88;;;;;;;;;;5039090;28;20037;-62
2021/06/05 02:22:36;;;;;;;14.10;1.40;;;;;;;;;;5042554;28;20063;-62
2021/06/05 02:25:03;;;;;;;8.40;1.00;;;;;;;;;;5040772;28;20170;-62
2021/06/05 02:27:30;;;;;;;10.32;1.08;;;;;;;;;;5041036;28;20128;-61
2021/06/05 02:29:57;;;;;;;12.05;1.10;;;;;;;;;;5042496;28;20067;-63
2021/06/05 02:32:25;;;;;;;4.85;1.05;;;;;;;;;;5041064;28;20517;-62
2021/06/05 02:34:55;;;;;;;7.50;1.10;;;;;;;;;;5041048;28;20140;-62
2021/06/05 02:37:23;;;;;;;6.60;0.93;;;;;;;;;;5041375;28;20115;-63
2021/06/05 02:39:52;;;;;;;3.55;1.15;;;;;;;;;;5039934;28;20037;-61
2021/06/05 02:42:20;;;;;;;6.53;0.98;;;;;;;;;;5041535;28;20033;-61
2021/06/05 02:44:48;;;;;;;5.13;1.00;;;;;;;;;;5041807;28;20461;-61
2021/06/05 02:47:14;;;;;;;6.05;0.90;;;;;;;;;;5041518;28;20634;-62
2021/06/05 02:49:40;;;;;;;7.63;0.90;;;;;;;;;;5040557;28;20049;-61
2021/06/05 02:52:28;;;;;;;9.15;1.02;;;;;;;;;;5042133;28;20044;-60
2021/06/05 02:54:58;;;;;;;11.75;1.13;;;;;;;;;;5039863;28;20040;-60
2021/06/05 02:57:23;;;;;;;8.52;0.85;;;;;;;;;;5041093;28;20126;-61
2021/06/05 02:59:49;;;;;;;9.25;0.90;;;;;;;;;;5041170;28;20041;-61
2021/06/05 03:02:15;;;;;;;5.90;0.85;;;;;;;;;;5042944;28;20079;-61
2021/06/05 03:04:41;;;;;;;3.45;0.77;;;;;;;;;;5040318;28;20626;-60
2021/06/05 03:07:07;;;;;;;4.30;0.90;;;;;;;;;;5040667;28;20104;-62
2021/06/05 03:09:33;;;;;;;8.52;0.90;;;;;;;;;;5040053;28;20064;-63
2021/06/05 03:11:59;;;;;;;9.35;0.80;;;;;;;;;;5039947;28;20493;-60
2021/06/05 03:14:25;;;;;;;4.95;1.00;;;;;;;;;;5039894;28;20036;-60
2021/06/05 03:16:51;;;;;;;5.20;0.80;;;;;;;;;;5041372;28;20047;-61
2021/06/05 03:19:17;;;;;;;4.45;0.80;;;;;;;;;;5040810;28;20059;-61
2021/06/05 03:21:43;;;;;;;4.47;0.80;;;;;;;;;;5040701;28;20156;-61
2021/06/05 03:24:09;;;;;;;5.47;0.93;;;;;;;;;;5040965;28;20536;-61
2021/06/05 03:26:35;;;;;;;7.35;0.95;;;;;;;;;;5040773;28;20037;-60
2021/06/05 03:29:01;;;;;;;10.02;1.02;;;;;;;;;;5037791;28;20064;-60
2021/06/05 03:31:26;;;;;;;9.95;1.15;;;;;;;;;;5039069;28;20486;-60
2021/06/05 03:33:52;;;;;;;13.57;1.10;;;;;;;;;;5037465;28;20067;-60
2021/06/05 03:36:19;;;;;;;8.07;0.98;;;;;;;;;;5039525;28;20227;-60
2021/06/05 03:38:45;;;;;;;3.70;0.90;;;;;;;;;;5041108;28;20053;-59
2021/06/05 03:41:12;;;;;;;7.15;1.00;;;;;;;;;;5041583;28;20037;-59
2021/06/05 03:43:38;;;;;;;9.77;0.98;;;;;;;;;;5040962;28;20068;-60
2021/06/05 03:46:04;;;;;;;5.20;0.90;;;;;;;;;;5039847;28;20506;-60
2021/06/05 03:48:30;;;;;;;5.55;0.90;;;;;;;;;;5038392;28;20110;-59
2021/06/05 03:50:56;;;;;;;6.28;0.90;;;;;;;;;;5041146;28;20028;-59
2021/06/05 03:53:23;;;;;;;5.82;0.80;;;;;;;;;;5038187;28;20155;-59
2021/06/05 03:55:48;;;;;;;5.18;0.90;;;;;;;;;;5041054;28;20032;-60
2021/06/05 03:58:14;;;;;;;6.40;0.90;;;;;;;;;;5040567;28;20064;-60
2021/06/05 04:00:42;;;;;;;3.33;0.77;;;;;;;;;;5038624;28;20055;-57
2021/06/05 04:03:08;;;;;;;5.32;1.10;;;;;;;;;;5039862;28;20088;-59
2021/06/05 04:05:34;;;;;;;4.70;0.80;;;;;;;;;;5039390;28;20115;-59
2021/06/05 04:08:00;;;;;;;4.10;0.75;;;;;;;;;;5039550;28;20471;-59
2021/06/05 04:10:27;;;;;;;3.30;1.00;;;;;;;;;;5039359;28;20037;-60
2021/06/05 04:12:54;;;;;;;4.63;0.85;;;;;;;;;;5040321;28;20041;-60
2021/06/05 04:15:23;;;;;;;5.47;0.95;;;;;;;;;;5038273;28;20126;-59
2021/06/05 04:17:57;;;;;;;4.53;0.80;;;;;;;;;;5038111;28;20123;-59
2021/06/05 04:20:23;;;;;;;4.93;0.90;;;;;;;;;;5036998;28;20041;-59
2021/06/05 04:22:49;;;;;;;4.05;0.80;;;;;;;;;;5044703;28;20052;-60
2021/06/05 04:25:15;;;;;;;3.97;0.80;;;;;;;;;;5038551;28;20041;-59
2021/06/05 04:27:41;;;;;;;4.82;0.90;;;;;;;;;;5038635;28;20037;-60
2021/06/05 04:30:11;;;;;;;3.58;0.73;;;;;;;;;;5039388;28;20052;-60
2021/06/05 04:32:37;;;;;;;3.22;0.77;;;;;;;;;;5036733;28;20041;-60
2021/06/05 04:35:05;;;;;;;2.95;0.70;;;;;;;;;;5037442;28;20087;-57
2021/06/05 04:37:31;;;;;;;5.05;0.85;;;;;;;;;;5038972;28;20099;-59
2021/06/05 04:39:57;;;;;;;3.28;0.90;;;;;;;;;;5035645;28;20731;-59
2021/06/05 04:42:22;;;;;;;3.47;0.82;;;;;;;;;;5039865;28;20033;-60
2021/06/05 04:44:48;;;;;;;4.65;0.85;;;;;;;;;;5038729;28;20048;-60
2021/06/05 04:47:14;;;;;;;5.07;0.82;;;;;;;;;;5040857;28;20036;-60
2021/06/05 04:49:40;;;;;;;4.45;0.90;;;;;;;;;;5040088;28;20548;-58
2021/06/05 04:52:06;;;;;;;6.45;0.80;;;;;;;;;;5043032;28;20091;-60
2021/06/05 04:54:32;;;;;;;3.83;0.70;;;;;;;;;;5042041;28;20032;-55
2021/06/05 04:56:58;;;;;;;4.43;0.80;;;;;;;;;;5041517;28;20040;-57
2021/06/05 04:59:25;;;;;;;5.53;0.98;;;;;;;;;;5040209;28;20879;-56
2021/06/05 05:01:50;;;;;;;5.97;0.90;;;;;;;;;;5040247;28;20033;-55
2021/06/05 05:04:16;;;;;;;4.32;1.00;;;;;;;;;;5042867;28;20075;-55
2021/06/05 05:06:42;;;;;;;7.55;1.00;;;;;;;;;;5044650;28;20029;-53
2021/06/05 05:09:10;;;;;;;5.22;0.70;;;;;;;;;;5044939;28;20041;-56
2021/06/05 05:11:36;;;;;;;7.60;0.95;;;;;;;;;;5044162;28;20040;-55
2021/06/05 05:14:02;;;;;;;5.85;1.38;;;;;;;;;;5045327;28;20048;-55
2021/06/05 05:16:27;;;;;;;6.57;1.00;;;;;;;;;;5041963;28;20374;-56
2021/06/05 05:18:54;;;;;;;5.18;1.10;;;;;;;;;;5043102;28;20044;-55
2021/06/05 05:21:21;;;;;;;6.15;1.20;;;;;;;;;;5045077;28;20045;-51
2021/06/05 05:23:47;;;;;;;7.72;1.70;;;;;;;;;;5044131;28;20057;-52
2021/06/05 05:26:13;;;;;;;15.20;2.17;;;;;;;;;;5044244;28;20052;-52
2021/06/05 05:28:39;;;;;;;5.85;1.60;;;;;;;;;;5044899;28;20052;-56
2021/06/05 05:31:07;;;;;;;5.22;1.65;;;;;;;;;;5048084;28;20493;-56
2021/06/05 05:33:42;;;;;;;7.13;1.77;;;;;;;;;;5046657;28;20048;-56
2021/06/05 05:36:11;;;;;;;5.93;1.83;;;;;;;;;;5042075;28;20568;-55
2021/06/05 05:38:37;;;;;;;11.77;2.00;;;;;;;;;;5040373;28;20509;-56
2021/06/05 05:41:05;;;;;;;7.03;1.67;;;;;;;;;;5042154;28;20052;-56
2021/06/05 05:43:31;;;;;;;8.50;2.08;;;;;;;;;;5039932;28;20043;-55
2021/06/05 05:45:56;;;;;;;10.23;2.22;;;;;;;;;;5042930;28;20032;-56
2021/06/05 05:48:22;;;;;;;7.05;1.77;;;;;;;;;;5041631;28;20080;-55
2021/06/05 05:50:48;;;;;;;7.55;1.65;;;;;;;;;;5043040;28;20044;-56
2021/06/05 05:53:14;;;;;;;9.20;2.00;;;;;;;;;;5042562;28;21127;-56
2021/06/05 05:55:40;;;;;;;10.25;2.00;;;;;;;;;;5042472;28;20063;-55
2021/06/05 05:58:16;;;;;;;7.25;1.90;;;;;;;;;;5038774;28;20131;-55
2021/06/05 06:00:43;;;;;;;5.15;1.40;;;;;;;;;;5040576;28;20052;-54
2021/06/05 06:03:09;;;;;;;7.72;1.73;;;;;;;;;;5041654;28;21134;-54
2021/06/05 06:05:35;;;;;;;7.75;1.70;;;;;;;;;;5040747;28;21936;-55
2021/06/05 06:08:01;;;;;;;9.00;2.00;;;;;;;;;;5044015;28;20036;-56
2021/06/05 06:10:28;;;;;;;7.55;2.00;;;;;;;;;;5039358;28;20140;-56
2021/06/05 06:12:54;;;;;;;8.32;1.65;;;;;;;;;;5040655;28;20041;-54
2021/06/05 06:15:22;;;;;;;9.40;1.95;;;;;;;;;;5045896;28;20158;-56
2021/06/05 06:17:49;;;;;;;7.05;1.50;;;;;;;;;;5044142;28;20467;-56
2021/06/05 06:20:34;;;;;;;8.68;2.10;;;;;;;;;;5047785;28;20059;-55
2021/06/05 06:23:05;;;;;;;8.98;1.70;;;;;;;;;;5042897;28;20033;-56
2021/06/05 06:25:33;;;;;;;6.30;1.77;;;;;;;;;;5021593;28;20064;-55
2021/06/05 06:28:00;;;;;;;7.78;1.90;;;;;;;;;;5042537;28;20051;-57
2021/06/05 06:30:27;;;;;;;7.50;1.90;;;;;;;;;;5041387;28;20044;-55
2021/06/05 06:32:53;;;;;;;6.82;1.90;;;;;;;;;;5041319;28;20124;-56
2021/06/05 06:35:20;;;;;;;7.13;1.80;;;;;;;;;;5042116;28;20144;-55
2021/06/05 06:37:46;;;;;;;12.77;2.03;;;;;;;;;;5041759;28;20087;-55
2021/06/05 06:40:12;;;;;;;5.75;1.83;;;;;;;;;;5040248;28;20061;-54
2021/06/05 06:42:38;;;;;;;8.95;1.70;;;;;;;;;;5041482;28;20125;-54
2021/06/05 06:45:05;;;;;;;7.95;1.92;;;;;;;;;;5042912;28;20072;-53
2021/06/05 06:47:30;;;;;;;4.53;2.00;;;;;;;;;;5039033;28;20036;-56
2021/06/05 06:49:56;;;;;;;4.93;1.52;;;;;;;;;;5040363;28;20025;-56
2021/06/05 06:52:25;;;;;;;10.45;2.08;;;;;;;;;;5039468;28;20045;-56
2021/06/05 06:54:52;;;;;;;8.07;2.05;;;;;;;;;;5041157;28;20041;-55
2021/06/05 06:57:18;;;;;;;7.43;1.90;;;;;;;;;;5040732;28;20225;-55
2021/06/05 06:59:43;;;;;;;6.72;1.63;;;;;;;;;;5015310;28;20057;-52
2021/06/05 07:02:10;;;;;;;6.97;1.98;;;;;;;;;;5040592;28;20124;-55
2021/06/05 07:04:36;;;;;;;3.85;1.77;;;;;;;;;;5040738;28;20505;-54
2021/06/05 07:07:02;;;;;;;6.47;1.98;;;;;;;;;;5040722;28;20041;-56
2021/06/05 07:09:29;;;;;;;4.03;1.48;;;;;;;;;;5042372;28;20036;-56
2021/06/05 07:11:54;;;;;;;6.03;1.85;;;;;;;;;;5041014;28;20063;-54
2021/06/05 07:14:20;;;;;;;7.18;2.05;;;;;;;;;;5040465;28;20132;-55
2021/06/05 07:16:46;;;;;;;11.93;2.10;;;;;;;;;;5041161;28;20060;-56
2021/06/05 07:19:12;;;;;;;7.50;2.25;;;;;;;;;;5040320;28;20060;-54
2021/06/05 07:21:38;;;;;;;6.78;1.92;;;;;;;;;;5039018;28;20045;-55
2021/06/05 07:24:04;;;;;;;9.63;2.08;;;;;;;;;;5039733;28;20053;-55
2021/06/05 07:26:30;;;;;;;5.65;1.75;;;;;;;;;;5040764;28;20045;-56
2021/06/05 07:29:00;;;;;;;6.00;1.90;;;;;;;;;;5043639;28;20600;-56
2021/06/05 07:31:31;;;;;;;5.05;2.40;;;;;;;;;;5044228;28;20123;-56
2021/06/05 07:33:57;;;;;;;6.13;2.10;;;;;;;;;;5040439;28;20055;-56
2021/06/05 07:36:24;;;;;;;7.78;2.05;;;;;;;;;;5039158;28;20041;-56
2021/06/05 07:38:51;;;;;;;9.25;2.20;;;;;;;;;;5038890;28;20052;-57
2021/06/05 07:41:16;;;;;;;6.53;2.03;;;;;;;;;;5039833;28;20033;-57
2021/06/05 07:43:42;;;;;;;6.50;1.83;;;;;;;;;;5038753;28;20051;-53
2021/06/05 07:46:08;;;;;;;5.60;2.05;;;;;;;;;;5039947;28;20048;-57
2021/06/05 07:48:35;;;;;;;9.50;1.80;;;;;;;;;;5039424;28;21633;-55
2021/06/05 07:51:01;;;;;;;12.65;2.70;;;;;;;;;;5041183;28;20120;-57
2021/06/05 07:53:27;;;;;;;6.90;1.80;;;;;;;;;;5039952;28;20059;-56
2021/06/05 07:55:53;;;;;;;7.53;2.28;;;;;;;;;;5041731;28;20032;-56
2021/06/05 07:58:19;;;;;;;11.45;2.25;;;;;;;;;;5040605;28;20067;-54
2021/06/05 08:01:05;;;;;;;7.07;2.08;;;;;;;;;;5062237;28;20138;-56
2021/06/05 08:03:31;;;;;;;9.25;2.10;;;;;;;;;;5063379;28;20505;-57
2021/06/05 08:05:57;;;;;;;11.93;2.28;;;;;;;;;;5062477;28;20131;-57
2021/06/05 08:08:23;;;;;;;6.22;1.75;;;;;;;;;;5062354;28;20111;-56
2021/06/05 08:10:49;;;;;;;6.88;1.80;;;;;;;;;;5063209;28;20143;-54
2021/06/05 08:13:14;;;;;;;9.00;1.70;;;;;;;;;;5062058;28;20040;-54
2021/06/05 08:15:42;;;;;;;9.18;2.10;;;;;;;;;;5063334;28;20048;-56
2021/06/05 08:18:08;;;;;;;8.07;2.17;;;;;;;;;;5061982;28;20052;-54
2021/06/05 08:20:37;;;;;;;8.30;2.15;;;;;;;;;;5062854;28;20036;-53
2021/06/05 08:23:03;;;;;;;7.40;2.22;;;;;;;;;;5061565;28;20444;-55
2021/06/05 08:25:29;;;;;;;15.10;2.28;;;;;;;;;;5063094;28;20114;-56
2021/06/05 08:27:56;;;;;;;10.07;2.05;;;;;;;;;;5062324;28;20040;-55
2021/06/05 08:30:42;;;;;;;4.93;1.80;;;;;;;;;;5061892;28;20048;-56
2021/06/05 08:33:08;;;;;;;7.45;2.15;;;;;;;;;;5062701;28;20040;-55
2021/06/05 08:35:34;;;;;;;9.35;2.40;;;;;;;;;;5061578;28;20044;-55
2021/06/05 08:38:00;;;;;;;8.15;1.90;;;;;;;;;;5057359;28;20048;-56
2021/06/05 08:40:38;;;;;;;4.63;1.92;;;;;;;;;;5045431;28;20037;-54
2021/06/05 08:43:04;;;;;;;7.00;2.08;;;;;;;;;;5044150;28;20033;-55
2021/06/05 08:45:31;;;;;;;10.10;2.00;;;;;;;;;;5042915;28;20056;-55
2021/06/05 08:47:58;;;;;;;14.27;2.30;;;;;;;;;;5042948;28;20044;-56
2021/06/05 08:50:28;;;;;;;10.77;2.22;;;;;;;;;;5042178;28;20052;-52
2021/06/05 08:53:02;;;;;;;6.95;2.00;;;;;;;;;;5042719;28;20028;-56
2021/06/05 08:55:36;;;;;;;14.85;1.90;;;;;;;;;;5042677;28;20761;-56
2021/06/05 08:58:11;;;;;;;6.93;2.40;;;;;;;;;;5042827;28;20822;-56
2021/06/05 09:00:40;;;;;;;11.40;2.53;;;;;;;;;;5041315;28;20040;-54
2021/06/05 09:03:10;;;;;;;7.28;2.10;;;;;;;;;;5048693;28;20025;-54
2021/06/05 09:05:38;;;;;;;8.85;2.40;;;;;;;;;;5049243;28;20152;-54
2021/06/05 09:08:04;;;;;;;7.13;2.10;;;;;;;;;;5048214;28;20075;-54
2021/06/05 09:10:31;;;;;;;8.57;2.60;;;;;;;;;;5047868;28;20503;-54
2021/06/05 09:12:57;;;;;;;6.32;2.10;;;;;;;;;;5048093;28;20041;-54
2021/06/05 09:15:30;;;;;;;8.55;2.20;;;;;;;;;;5045456;28;20033;-57
2021/06/05 09:17:55;;;;;;;;;;;;;;;;;;5046687;28;20090;-55
2021/06/05 09:20:25;;;;;;;5.00;2.05;;;;;;;;;;5043238;28;20589;-55
2021/06/05 09:22:51;;;;;;;7.38;2.38;;;;;;;;;;5044895;28;20436;-57
2021/06/05 09:25:21;;;;;;;4.32;1.98;;;;;;;;;;5044659;28;20032;-54
2021/06/05 09:27:47;;;;;;;8.20;2.22;;;;;;;;;;5044356;28;20044;-54
2021/06/05 09:30:23;;;;;;;7.60;2.42;;;;;;;;;;5045977;28;20037;-53
2021/06/05 09:32:49;;;;;;;9.40;2.60;;;;;;;;;;5044728;28;20506;-55
2021/06/05 09:35:20;;;;;;;9.65;2.50;;;;;;;;;;5045740;28;20047;-56
2021/06/05 09:37:47;;;;;;;5.85;2.13;;;;;;;;;;5046032;28;20482;-57
2021/06/05 09:40:19;;;;;;;7.22;2.60;;;;;;;;;;5046665;28;20095;-55
2021/06/05 09:42:50;;;;;;;7.15;2.55;;;;;;;;;;5045359;28;20040;-55
2021/06/05 09:45:24;;;;;;;8.93;2.50;;;;;;;;;;5045347;28;20689;-57
2021/06/05 09:47:52;;;;;;;5.50;2.65;;;;;;;;;;5043577;28;20278;-55
2021/06/05 09:50:17;;;;;;;5.50;1.88;;;;;;;;;;5042765;28;20036;-58
2021/06/05 09:52:43;;;;;;;5.78;2.42;;;;;;;;;;5045055;28;20049;-55
2021/06/05 09:55:12;;;;;;;12.82;2.50;;;;;;;;;;5045628;28;20174;-56
2021/06/05 09:57:39;;;;;;;9.05;2.40;;;;;;;;;;5043590;28;20031;-58
2021/06/05 10:00:08;;;;;;;9.38;2.20;;;;;;;;;;5043932;28;20601;-56
2021/06/05 10:02:35;;;;;;;5.75;2.10;;;;;;;;;;5043528;28;20028;-56
2021/06/05 10:05:21;;;;;;;6.60;2.20;;;;;;;;;;5045712;28;20209;-53
2021/06/05 10:07:47;;;;;;;8.45;2.40;;;;;;;;;;5044631;28;20049;-56
2021/06/05 10:10:31;;;;;;;6.65;2.88;;;;;;;;;;5044680;28;20045;-55
2021/06/05 10:12:58;;;;;;;6.72;2.38;;;;;;;;;;5042606;28;20053;-57
2021/06/05 10:15:27;;;;;;;8.52;2.42;;;;;;;;;;5041307;28;20036;-56
2021/06/05 10:17:53;;;;;;;7.72;2.60;;;;;;;;;;5045394;28;20037;-55
2021/06/05 10:20:29;;;;;;;11.45;2.58;;;;;;;;;;5044414;28;20751;-55
2021/06/05 10:22:57;;;;;;;9.90;2.58;;;;;;;;;;5047140;28;20486;-55
2021/06/05 10:25:30;;;;;;;9.75;2.20;;;;;;;;;;5044365;28;20639;-55
2021/06/05 10:27:57;;;;;;;7.40;2.60;;;;;;;;;;5061371;28;20052;-55
2021/06/05 10:30:23;;;;;;;7.22;2.45;;;;;;;;;;5045620;28;20982;-58
2021/06/05 10:32:50;;;;;;;6.45;2.60;;;;;;;;;;5045073;28;20139;-57
2021/06/05 10:35:33;;;;;;;12.50;3.00;;;;;;;;;;5046631;28;20045;-56
2021/06/05 10:38:05;;;;;;;10.57;2.60;;;;;;;;;;5045512;28;20063;-55
2021/06/05 10:40:31;;;;;;;6.45;2.38;;;;;;;;;;5044978;28;20734;-55
2021/06/05 10:42:57;;;;;;;8.40;2.70;;;;;;;;;;5046125;28;20128;-55
2021/06/05 10:45:28;;;;;;;7.57;2.58;;;;;;;;;;5046244;28;20095;-54
2021/06/05 10:47:57;;;;;;;7.55;2.63;;;;;;;;;;5042982;28;20085;-55
2021/06/05 10:50:28;;;;;;;9.73;2.78;;;;;;;;;;5044353;28;20098;-55
2021/06/05 10:53:09;;;;;;;12.40;3.08;;;;;;;;;;5041609;28;20104;-55
2021/06/05 10:55:39;;;;;;;4.93;2.97;;;;;;;;;;5042568;28;20064;-55
2021/06/05 10:58:08;;;;;;;6.80;2.80;;;;;;;;;;5043235;28;20045;-52
2021/06/05 11:00:43;;;;;;;8.25;2.83;;;;;;;;;;5042482;28;20075;-54
2021/06/05 11:03:29;;;;;;;7.60;2.97;;;;;;;;;;5043715;28;20056;-54
2021/06/05 11:06:06;;;;;;;10.57;2.45;;;;;;;;;;5042807;28;20029;-52
2021/06/05 11:08:49;;;;;;;8.43;2.50;;;;;;;;;;5043126;28;20056;-53
2021/06/05 11:11:30;;;;;;;8.33;2.80;;;;;;;;;;5044362;28;20494;-55
2021/06/05 11:13:56;;;;;;;11.35;2.83;;;;;;;;;;5059272;28;20033;-55
2021/06/05 11:16:22;;;;;;;8.50;2.70;;;;;;;;;;5040726;28;20028;-55
2021/06/05 11:18:55;;;;;;;7.10;3.00;;;;;;;;;;5060568;28;20075;-55
2021/06/05 11:21:20;;;;;;;5.97;2.63;;;;;;;;;;5043599;28;20040;-55
2021/06/05 11:23:55;;;;;;;8.90;2.60;;;;;;;;;;5044826;28;20036;-55
2021/06/05 11:26:39;;;;;;;8.18;2.80;;;;;;;;;;5042193;28;20052;-55
2021/06/05 11:29:05;;;;;;;6.22;2.67;;;;;;;;;;5042003;28;20063;-57
2021/06/05 11:31:49;;;;;;;9.73;2.83;;;;;;;;;;5042370;28;20955;-55
2021/06/05 11:34:34;;;;;;;11.35;2.80;;;;;;;;;;5043581;28;20047;-54
2021/06/05 11:37:00;;;;;;;8.65;2.70;;;;;;;;;;5044792;28;20041;-55
2021/06/05 11:39:26;;;;;;;7.95;3.15;;;;;;;;;;5041032;28;20132;-53
2021/06/05 11:41:53;;;;;;;9.43;2.90;;;;;;;;;;5044894;28;20039;-54
2021/06/05 11:44:21;;;;;;;8.07;2.72;;;;;;;;;;5059157;28;20426;-54
2021/06/05 11:46:48;;;;;;;11.85;3.58;;;;;;;;;;5043964;28;20042;-55
2021/06/05 11:49:32;;;;;;;5.70;2.75;;;;;;;;;;5042375;28;20041;-55
2021/06/05 11:52:18;;;;;;;8.30;2.88;;;;;;;;;;5043125;28;20033;-55
2021/06/05 11:54:44;;;;;;;9.43;2.65;;;;;;;;;;5041613;28;20083;-55
2021/06/05 11:57:18;;;;;;;8.98;2.92;;;;;;;;;;5043897;28;20442;-54
2021/06/05 11:59:45;;;;;;;7.78;2.70;;;;;;;;;;5041517;28;20052;-54
2021/06/05 12:02:20;;;;;;;9.48;2.80;;;;;;;;;;5044590;28;20476;-55
2021/06/05 12:04:48;;;;;;;7.68;2.85;;;;;;;;;;5043206;28;20163;-55
2021/06/05 12:07:20;;;;;;;8.65;3.10;;;;;;;;;;5042549;28;20889;-56
2021/06/05 12:09:48;;;;;;;14.27;3.10;;;;;;;;;;5041100;28;20052;-53
2021/06/05 12:12:13;;;;;;;11.10;2.90;;;;;;;;;;5042953;28;20339;-55
2021/06/05 12:17:24;;;;;;;5.63;2.58;;;;;;;;;;5042578;28;20164;-54
2021/06/05 12:19:50;;;;;;;10.82;3.53;;;;;;;;;;5041588;28;20060;-55
2021/06/05 12:22:16;;;;;;;9.93;3.33;;;;;;;;;;5044453;28;20041;-54
2021/06/05 12:24:44;;;;;;;8.52;2.72;;;;;;;;;;5033422;28;20409;-55
2021/06/05 12:27:19;;;;;;;6.60;2.70;;;;;;;;;;5043782;28;20045;-56
2021/06/05 12:29:45;;;;;;;8.80;2.88;;;;;;;;;;5043284;28;20107;-55
2021/06/05 12:32:31;;;;;;;6.78;2.97;;;;;;;;;;5042629;28;20041;-56
2021/06/05 12:34:57;;;;;;;9.85;2.97;;;;;;;;;;5042109;28;20055;-56
2021/06/05 12:37:25;;;;;;;10.45;3.10;;;;;;;;;;5042198;28;20049;-57
2021/06/05 12:39:53;;;;;;;7.10;3.00;;;;;;;;;;5037315;28;20060;-55
2021/06/05 12:42:31;;;;;;;9.18;3.03;;;;;;;;;;5041590;28;20245;-58
2021/06/05 12:45:01;;;;;;;8.07;3.10;;;;;;;;;;5042666;28;20891;-56
2021/06/05 12:47:29;;;;;;;10.30;3.85;;;;;;;;;;5042295;28;20034;-56
2021/06/05 12:49:55;;;;;;;8.45;3.35;;;;;;;;;;5041409;28;20047;-57
2021/06/05 12:52:27;;;;;;;5.78;3.17;;;;;;;;;;5040872;28;20052;-55
2021/06/05 12:55:10;;;;;;;6.38;2.75;;;;;;;;;;5043623;28;20033;-56
2021/06/05 12:57:39;;;;;;;9.20;3.35;;;;;;;;;;5040495;28;20580;-52
2021/06/05 13:00:36;;;;;;;10.10;3.60;;;;;;;;;;5041177;28;20836;-52
2021/06/05 13:03:05;;;;;;;12.30;3.28;;;;;;;;;;4994137;28;20748;-55
2021/06/05 13:05:32;;;;;;;7.25;2.90;;;;;;;;;;5043463;28;20041;-56
2021/06/05 13:08:10;;;;;;;8.02;3.08;;;;;;;;;;5043007;28;20041;-56
2021/06/05 13:10:42;;;;;;;11.93;3.03;;;;;;;;;;5042992;28;20041;-55
2021/06/05 13:13:15;;;;;;;5.60;3.08;;;;;;;;;;5041104;28;20120;-56
2021/06/05 13:15:44;;;;;;;7.72;3.05;;;;;;;;;;5042677;28;20052;-57
2021/06/05 13:18:28;;;;;;;8.63;3.10;;;;;;;;;;5042088;28;20052;-56
2021/06/05 13:20:54;;;;;;;6.25;3.08;;;;;;;;;;5043646;28;20067;-55
2021/06/05 13:23:23;;;;;;;9.70;3.00;;;;;;;;;;5040823;28;20032;-57
2021/06/05 13:25:49;;;;;;;4.95;2.70;;;;;;;;;;5045955;28;20033;-56
2021/06/05 13:28:17;;;;;;;8.25;2.70;;;;;;;;;;5044175;28;20156;-54
2021/06/05 13:30:50;;;;;;;6.15;2.80;;;;;;;;;;5043351;28;20045;-62
2021/06/05 13:33:15;;;;;;;;;;;;;;;;;;5044125;28;20627;-56
2021/06/05 13:35:45;;;;;;;8.52;2.33;;;;;;;;;;5043976;28;19932;-56
2021/06/05 13:38:19;;;;;;;9.35;2.92;;;;;;;;;;5044829;28;20604;-56
2021/06/05 13:40:45;;;;;;;13.43;3.35;;;;;;;;;;5043731;28;20094;-56
2021/06/05 13:43:11;;;;;;;5.97;2.58;;;;;;;;;;5046328;28;20048;-55
2021/06/05 13:45:37;;;;;;;7.13;2.95;;;;;;;;;;5045218;28;20097;-57
2021/06/05 13:48:04;;;;;;;12.20;3.58;;;;;;;;;;5044697;28;20048;-56
2021/06/05 13:50:31;;;;;;;8.75;3.83;;;;;;;;;;5045787;28;20045;-56
2021/06/05 13:53:07;;;;;;;4.38;2.38;;;;;;;;;;5044826;28;20438;-57
2021/06/05 13:55:36;;;;;;;13.52;5.28;;;;;;;;;;5044974;28;20570;-56
2021/06/05 13:58:02;;;;;;;10.10;4.20;;;;;;;;;;5044013;28;20132;-54
2021/06/05 14:00:28;;;;;;;11.20;4.78;;;;;;;;;;5045368;28;20465;-56
2021/06/05 14:02:55;;;;;;;11.73;5.25;;;;;;;;;;5045471;28;20072;-56
2021/06/05 14:05:21;;;;;;;8.50;2.92;;;;;;;;;;5045662;28;20171;-55
2021/06/05 14:07:48;;;;;;;8.15;4.63;;;;;;;;;;5047530;28;20028;-59
2021/06/05 14:10:14;;;;;;;8.48;3.78;;;;;;;;;;5047383;28;20043;-57
2021/06/05 14:12:41;;;;;;;8.13;3.55;;;;;;;;;;5047498;28;20414;-56
2021/06/05 14:15:27;;;;;;;12.60;4.35;;;;;;;;;;5050497;28;20048;-56
2021/06/05 14:17:54;;;;;;;7.72;4.28;;;;;;;;;;5052004;28;20041;-57
2021/06/05 14:20:21;;;;;;;7.75;4.53;;;;;;;;;;5054614;28;20038;-55
2021/06/05 14:22:47;;;;;;;10.30;6.20;;;;;;;;;;5055631;28;20044;-55
2021/06/05 14:25:14;;;;;;;9.73;5.93;;;;;;;;;;5050636;28;20040;-53
2021/06/05 14:27:40;;;;;;;9.45;4.70;;;;;;;;;;5044859;28;20048;-57
2021/06/05 14:30:10;;;;;;;9.10;4.75;;;;;;;;;;5047930;28;20045;-54
2021/06/05 14:32:36;;;;;;;13.05;6.65;;;;;;;;;;5057183;28;20041;-54
2021/06/05 14:35:03;;;;;;;12.45;5.20;;;;;;;;;;5042903;28;20045;-56
2021/06/05 14:37:28;;;;;;;7.22;5.32;;;;;;;;;;5043246;28;20115;-57
2021/06/05 14:39:54;;;;;;;9.70;5.38;;;;;;;;;;5042156;28;20703;-55
2021/06/05 14:42:20;;;;;;;7.85;5.30;;;;;;;;;;5043170;28;20048;-56
2021/06/05 14:44:46;;;;;;;8.70;4.47;;;;;;;;;;5042987;28;20041;-55
2021/06/05 14:47:12;;;;;;;11.52;4.53;;;;;;;;;;5043024;28;20033;-57
2021/06/05 14:49:38;;;;;;;8.80;5.85;;;;;;;;;;5042469;28;20047;-56
2021/06/05 14:52:05;;;;;;;9.15;4.07;;;;;;;;;;5042501;28;20660;-55